createdAt,value
2023-04-08T00:01:04.363Z,12.41
2023-04-08T00:04:06.190Z,12.43
2023-04-08T00:07:07.905Z,12.55
2023-04-08T00:10:10.256Z,12.60
2023-04-08T00:13:13.241Z,12.62
2023-04-08T00:16:14.774Z,12.63
2023-04-08T00:19:16.230Z,12.59
2023-04-08T00:22:17.720Z,12.59
2023-04-08T00:25:19.264Z,12.62
2023-04-08T00:28:21.124Z,12.63
2023-04-08T00:31:22.777Z,12.65
2023-04-08T00:34:25.361Z,12.60
2023-04-08T00:37:27.418Z,12.61
2023-04-08T00:40:28.897Z,12.55
2023-04-08T00:43:30.437Z,12.52
2023-04-08T00:46:36.881Z,12.50
2023-04-08T00:49:38.552Z,12.45
2023-04-08T00:52:40.374Z,12.38
2023-04-08T00:55:41.867Z,12.42
2023-04-08T00:58:43.476Z,12.45
2023-04-08T01:01:50.884Z,12.49
2023-04-08T01:05:04.621Z,12.37
2023-04-08T01:08:08.447Z,12.38
2023-04-08T01:11:11.970Z,12.46
2023-04-08T01:14:20.045Z,12.50
2023-04-08T01:17:22.411Z,12.41
2023-04-08T01:20:25.459Z,12.29
2023-04-08T01:23:40.703Z,12.12
2023-04-08T01:26:43.641Z,11.99
2023-04-08T01:29:47.513Z,11.84
2023-04-08T01:32:52.129Z,11.74
2023-04-08T01:35:55.546Z,11.67
2023-04-08T01:38:57.514Z,11.77
2023-04-08T01:41:59.648Z,11.88
2023-04-08T01:45:03.358Z,12.00
2023-04-08T01:48:07.063Z,12.03
2023-04-08T01:51:09.345Z,12.10
2023-04-08T01:54:10.962Z,12.13
2023-04-08T01:57:16.985Z,12.03
2023-04-08T02:00:26.628Z,12.05
2023-04-08T02:03:31.095Z,12.18
2023-04-08T02:06:33.681Z,12.19
2023-04-08T02:09:35.268Z,12.23
2023-04-08T02:12:37.842Z,12.29
2023-04-08T02:15:51.324Z,12.34
2023-04-08T02:18:59.160Z,12.31
2023-04-08T02:22:07.929Z,12.27
2023-04-08T02:25:13.772Z,12.27
2023-04-08T02:28:17.724Z,12.24
2023-04-08T02:31:20.402Z,12.36
2023-04-08T02:34:22.489Z,12.40
2023-04-08T02:37:23.999Z,12.44
2023-04-08T02:40:31.820Z,12.46
2023-04-08T02:43:33.430Z,12.47
2023-04-08T02:46:39.796Z,12.49
2023-04-08T02:49:41.255Z,12.41
2023-04-08T02:52:43.789Z,12.30
2023-04-08T02:55:45.333Z,12.08
2023-04-08T02:58:46.853Z,12.02
2023-04-08T03:01:48.424Z,12.03
2023-04-08T03:04:49.891Z,12.13
2023-04-08T03:07:51.409Z,12.13
2023-04-08T03:10:52.869Z,12.21
2023-04-08T03:13:54.337Z,12.30
2023-04-08T03:16:55.955Z,12.29
2023-04-08T03:19:57.603Z,12.29
2023-04-08T03:22:59.020Z,12.28
2023-04-08T03:26:00.667Z,12.29
2023-04-08T03:29:02.134Z,12.32
2023-04-08T03:32:03.749Z,12.35
2023-04-08T03:35:06.386Z,12.28
2023-04-08T03:38:08.504Z,12.21
2023-04-08T03:41:10.398Z,12.18
2023-04-08T03:44:11.886Z,12.17
2023-04-08T03:47:13.343Z,12.23
2023-04-08T03:50:14.861Z,12.27
2023-04-08T03:53:16.413Z,12.29
2023-04-08T03:56:17.874Z,12.30
2023-04-08T03:59:19.431Z,12.29
2023-04-08T04:02:21.010Z,12.28
2023-04-08T04:05:22.705Z,12.30
2023-04-08T04:08:24.267Z,12.32
2023-04-08T04:11:26.419Z,12.29
2023-04-08T04:14:27.897Z,12.27
2023-04-08T04:17:29.461Z,12.25
2023-04-08T04:20:30.949Z,12.23
2023-04-08T04:23:32.471Z,12.22
2023-04-08T04:26:33.944Z,12.23
2023-04-08T04:29:35.842Z,12.29
2023-04-08T04:32:37.333Z,12.26
2023-04-08T04:35:40.879Z,12.20
2023-04-08T04:38:45.351Z,12.20
2023-04-08T04:41:48.975Z,12.11
2023-04-08T04:44:50.515Z,12.15
2023-04-08T04:47:52.084Z,12.13
2023-04-08T04:50:57.785Z,12.24
2023-04-08T04:53:59.236Z,12.30
2023-04-08T04:57:00.989Z,12.29
2023-04-08T05:00:05.163Z,12.28
2023-04-08T05:03:07.480Z,12.24
2023-04-08T05:06:09.173Z,12.30
2023-04-08T05:09:10.626Z,12.31
2023-04-08T05:12:12.605Z,12.32
2023-04-08T05:15:14.367Z,12.31
2023-04-08T05:18:16.081Z,12.31
2023-04-08T05:21:17.524Z,12.30
2023-04-08T05:24:18.946Z,12.40
2023-04-08T05:27:21.694Z,12.49
2023-04-08T05:30:23.338Z,12.60
2023-04-08T05:33:26.525Z,12.57
2023-04-08T05:36:28.161Z,12.38
2023-04-08T05:39:29.648Z,12.44
2023-04-08T05:42:32.082Z,12.52
2023-04-08T05:45:33.716Z,12.70
2023-04-08T05:48:35.714Z,12.79
2023-04-08T05:51:37.209Z,12.88
2023-04-08T05:54:38.682Z,12.89
2023-04-08T05:57:41.330Z,13.00
2023-04-08T06:00:42.864Z,13.10
2023-04-08T06:03:44.563Z,13.20
2023-04-08T06:06:46.304Z,13.34
2023-04-08T06:09:47.776Z,13.46
2023-04-08T06:12:49.264Z,13.61
2023-04-08T06:15:50.818Z,13.69
2023-04-08T06:18:52.422Z,13.75
2023-04-08T06:21:58.753Z,13.86
2023-04-08T06:25:00.284Z,13.99
2023-04-08T06:28:02.660Z,14.12
2023-04-08T06:31:04.405Z,14.23
2023-04-08T06:34:06.146Z,14.30
2023-04-08T06:37:07.752Z,14.41
2023-04-08T06:40:10.217Z,14.57
2023-04-08T06:43:11.700Z,14.61
2023-04-08T06:46:15.413Z,14.71
2023-04-08T06:49:16.946Z,14.77
2023-04-08T06:52:18.425Z,14.86
2023-04-08T06:55:19.869Z,14.82
2023-04-08T06:58:21.360Z,14.93
2023-04-08T07:01:22.870Z,14.96
2023-04-08T07:04:24.479Z,14.96
2023-04-08T07:07:26.201Z,14.75
2023-04-08T07:10:27.758Z,14.79
2023-04-08T07:13:29.474Z,14.94
2023-04-08T07:16:31.080Z,15.14
2023-04-08T07:19:32.662Z,15.30
2023-04-08T07:22:34.145Z,15.30
2023-04-08T07:25:35.607Z,15.36
2023-04-08T07:28:37.102Z,15.42
2023-04-08T07:31:38.694Z,15.41
2023-04-08T07:34:40.481Z,15.66
2023-04-08T07:37:42.207Z,15.64
2023-04-08T07:40:43.716Z,15.62
2023-04-08T07:43:45.263Z,15.73
2023-04-08T07:46:50.811Z,15.93
2023-04-08T07:49:52.517Z,16.20
2023-04-08T07:52:53.991Z,16.05
2023-04-08T07:55:55.497Z,16.26
2023-04-08T07:58:57.215Z,16.36
2023-04-08T08:01:58.860Z,16.42
2023-04-08T08:05:01.587Z,16.37
2023-04-08T08:08:03.218Z,16.36
2023-04-08T08:11:04.790Z,16.28
2023-04-08T08:14:06.369Z,16.23
2023-04-08T08:17:07.838Z,16.39
2023-04-08T08:20:10.392Z,16.65
2023-04-08T08:23:11.866Z,16.82
2023-04-08T08:26:13.304Z,16.77
2023-04-08T08:29:14.851Z,16.88
2023-04-08T08:32:16.359Z,16.84
2023-04-08T08:35:18.039Z,16.91
2023-04-08T08:38:19.718Z,16.72
2023-04-08T08:41:21.665Z,16.77
2023-04-08T08:44:23.757Z,16.81
2023-04-08T08:47:25.495Z,16.87
2023-04-08T08:50:28.609Z,16.91
2023-04-08T08:53:34.279Z,16.87
2023-04-08T08:56:37.406Z,16.82
2023-04-08T08:59:38.859Z,16.96
2023-04-08T09:02:40.491Z,16.74
2023-04-08T09:05:48.929Z,16.64
2023-04-08T09:08:50.362Z,16.80
2023-04-08T09:12:04.475Z,17.02
2023-04-08T09:15:10.277Z,17.16
2023-04-08T09:18:22.975Z,17.28
2023-04-08T09:21:27.455Z,17.59
2023-04-08T09:24:30.722Z,17.65
2023-04-08T09:27:35.971Z,17.61
2023-04-08T09:30:37.718Z,17.68
2023-04-08T09:33:39.188Z,17.82
2023-04-08T09:36:40.808Z,17.64
2023-04-08T09:39:42.342Z,17.72
2023-04-08T09:42:51.028Z,17.69
2023-04-08T09:45:52.874Z,17.45
2023-04-08T09:49:07.718Z,17.65
2023-04-08T09:52:46.209Z,17.77
2023-04-08T09:55:53.340Z,17.56
2023-04-08T09:58:59.504Z,17.64
2023-04-08T10:02:07.198Z,17.66
2023-04-08T10:05:12.999Z,17.84
2023-04-08T10:08:15.430Z,17.65
2023-04-08T10:11:17.366Z,17.57
2023-04-08T10:14:18.909Z,17.76
2023-04-08T10:17:36.031Z,17.85
2023-04-08T10:20:37.552Z,18.34
2023-04-08T10:24:05.998Z,18.38
2023-04-08T10:27:45.148Z,18.06
2023-04-08T10:30:54.196Z,17.42
2023-04-08T10:33:56.283Z,17.21
2023-04-08T10:36:59.419Z,17.09
2023-04-08T10:40:01.068Z,17.09
2023-04-08T10:43:02.517Z,16.97
2023-04-08T10:46:04.863Z,17.34
2023-04-08T10:49:06.958Z,17.62
2023-04-08T10:52:09.246Z,18.03
2023-04-08T10:55:10.838Z,18.23
2023-04-08T10:58:12.783Z,18.39
2023-04-08T11:01:14.480Z,18.62
2023-04-08T11:04:23.569Z,18.82
2023-04-08T11:07:27.003Z,18.90
2023-04-08T11:10:29.074Z,18.49
2023-04-08T11:13:31.627Z,18.23
2023-04-08T11:16:34.715Z,18.10
2023-04-08T11:19:37.099Z,17.83
2023-04-08T11:22:39.743Z,17.92
2023-04-08T11:25:45.738Z,17.98
2023-04-08T11:28:50.720Z,18.26
2023-04-08T11:31:52.352Z,19.02
2023-04-08T11:34:53.850Z,19.22
2023-04-08T11:37:55.570Z,19.42
2023-04-08T11:40:58.988Z,19.47
2023-04-08T11:44:00.803Z,19.51
2023-04-08T11:47:02.370Z,19.05
2023-04-08T11:50:04.279Z,18.87
2023-04-08T11:53:20.106Z,17.98
2023-04-08T11:56:25.858Z,17.61
2023-04-08T11:59:29.506Z,17.59
2023-04-08T12:02:31.367Z,17.63
2023-04-08T12:05:33.122Z,17.29
2023-04-08T12:08:34.609Z,17.40
2023-04-08T12:11:36.232Z,17.50
2023-04-08T12:14:37.736Z,17.42
2023-04-08T12:17:39.335Z,17.41
2023-04-08T12:20:40.985Z,17.59
2023-04-08T12:23:42.681Z,17.96
2023-04-08T12:26:44.154Z,18.41
2023-04-08T12:29:46.181Z,18.77
2023-04-08T12:32:47.949Z,18.92
2023-04-08T12:35:49.634Z,18.91
2023-04-08T12:38:51.360Z,19.22
2023-04-08T12:41:53.043Z,19.23
2023-04-08T12:44:54.668Z,19.42
2023-04-08T12:47:56.155Z,19.74
2023-04-08T12:50:58.780Z,20.44
2023-04-08T12:54:01.319Z,21.20
2023-04-08T12:57:02.853Z,21.31
2023-04-08T13:00:04.844Z,20.32
2023-04-08T13:03:07.099Z,19.40
2023-04-08T13:06:08.654Z,18.75
2023-04-08T13:09:10.125Z,18.36
2023-04-08T13:12:12.165Z,18.25
2023-04-08T13:15:13.648Z,18.29
2023-04-08T13:18:15.147Z,18.40
2023-04-08T13:21:16.667Z,18.60
2023-04-08T13:24:18.222Z,18.82
2023-04-08T13:27:19.694Z,19.14
2023-04-08T13:30:21.180Z,19.38
2023-04-08T13:33:22.592Z,19.48
2023-04-08T13:36:24.100Z,19.46
2023-04-08T13:39:25.666Z,19.15
2023-04-08T13:42:27.246Z,19.06
2023-04-08T13:45:28.831Z,19.30
2023-04-08T13:48:30.295Z,19.41
2023-04-08T13:51:31.806Z,19.52
2023-04-08T13:54:33.282Z,19.65
2023-04-08T13:57:34.899Z,19.58
2023-04-08T14:00:36.554Z,19.10
2023-04-08T14:03:38.053Z,18.97
2023-04-08T14:06:39.520Z,18.87
2023-04-08T14:09:41.441Z,18.46
2023-04-08T14:12:42.988Z,18.05
2023-04-08T14:15:44.631Z,17.91
2023-04-08T14:18:46.573Z,17.89
2023-04-08T14:21:48.139Z,17.98
2023-04-08T14:24:49.579Z,17.96
2023-04-08T14:27:58.593Z,17.82
2023-04-08T14:31:00.481Z,17.57
2023-04-08T14:34:02.353Z,17.40
2023-04-08T14:37:04.091Z,17.48
2023-04-08T14:40:06.294Z,17.41
2023-04-08T14:43:07.884Z,17.51
2023-04-08T14:46:09.470Z,17.45
2023-04-08T14:49:10.974Z,17.28
2023-04-08T14:52:12.499Z,17.23
2023-04-08T14:55:13.997Z,17.20
2023-04-08T14:58:15.959Z,17.29
2023-04-08T15:01:17.524Z,17.29
2023-04-08T15:04:19.108Z,17.36
2023-04-08T15:07:20.719Z,17.46
2023-04-08T15:10:22.214Z,17.60
2023-04-08T15:13:23.777Z,17.80
2023-04-08T15:16:25.408Z,17.99
2023-04-08T15:19:27.047Z,18.01
2023-04-08T15:22:28.453Z,17.93
2023-04-08T15:25:29.978Z,17.89
2023-04-08T15:28:31.672Z,18.03
2023-04-08T15:31:34.864Z,18.12
2023-04-08T15:34:36.694Z,18.14
2023-04-08T15:37:38.196Z,18.12
2023-04-08T15:40:39.658Z,18.19
2023-04-08T15:43:41.423Z,18.15
2023-04-08T15:46:42.937Z,18.14
2023-04-08T15:49:44.790Z,18.18
2023-04-08T15:52:46.262Z,18.22
2023-04-08T15:55:47.735Z,18.26
2023-04-08T15:58:49.485Z,18.38
2023-04-08T16:01:51.169Z,18.52
2023-04-08T16:04:52.739Z,18.57
2023-04-08T16:07:54.148Z,18.50
2023-04-08T16:11:04.073Z,18.24
2023-04-08T16:14:05.681Z,18.07
2023-04-08T16:17:07.474Z,17.94
2023-04-08T16:20:09.535Z,17.93
2023-04-08T16:23:10.962Z,17.85
2023-04-08T16:26:12.828Z,17.70
2023-04-08T16:29:14.424Z,17.60
2023-04-08T16:32:16.112Z,17.44
2023-04-08T16:35:18.562Z,17.30
2023-04-08T16:38:20.936Z,17.20
2023-04-08T16:41:22.353Z,17.15
2023-04-08T16:44:23.882Z,17.12
2023-04-08T16:47:26.852Z,17.03
2023-04-08T16:50:28.605Z,16.90
2023-04-08T16:53:30.434Z,16.82
2023-04-08T16:56:31.986Z,16.81
2023-04-08T16:59:33.471Z,16.82
2023-04-08T17:02:35.044Z,16.83
2023-04-08T17:05:37.108Z,16.79
2023-04-08T17:08:40.365Z,16.76
2023-04-08T17:11:42.145Z,16.76
2023-04-08T17:14:43.613Z,16.71
2023-04-08T17:17:45.411Z,16.71
2023-04-08T17:20:47.137Z,16.75
2023-04-08T17:23:48.710Z,16.70
2023-04-08T17:26:50.420Z,16.64
2023-04-08T17:29:57.400Z,16.67
2023-04-08T17:32:58.969Z,16.65
2023-04-08T17:36:00.764Z,16.48
2023-04-08T17:39:02.267Z,16.39
2023-04-08T17:42:04.096Z,16.50
2023-04-08T17:45:06.235Z,16.42
2023-04-08T17:48:09.704Z,16.31
2023-04-08T17:51:11.774Z,16.38
2023-04-08T17:54:13.295Z,16.43
2023-04-08T17:57:14.788Z,16.32
2023-04-08T18:00:16.641Z,16.36
2023-04-08T18:03:19.048Z,16.34
2023-04-08T18:06:20.570Z,16.26
2023-04-08T18:09:22.028Z,16.22
2023-04-08T18:12:23.458Z,16.22
2023-04-08T18:15:25.124Z,16.21
2023-04-08T18:18:26.611Z,16.22
2023-04-08T18:21:28.121Z,16.24
2023-04-08T18:24:29.600Z,16.19
2023-04-08T18:27:31.255Z,16.15
2023-04-08T18:30:32.785Z,16.09
2023-04-08T18:33:34.396Z,16.11
2023-04-08T18:36:36.259Z,16.04
2023-04-08T18:39:40.939Z,15.99
2023-04-08T18:42:42.379Z,15.98
2023-04-08T18:45:43.942Z,15.91
2023-04-08T18:48:46.503Z,15.87
2023-04-08T18:51:59.128Z,15.83
2023-04-08T18:55:05.331Z,15.81
2023-04-08T18:58:07.329Z,15.80
2023-04-08T19:01:09.491Z,15.81
2023-04-08T19:04:11.177Z,15.78
2023-04-08T19:07:12.631Z,15.80
2023-04-08T19:10:14.084Z,15.80
2023-04-08T19:13:15.711Z,15.81
2023-04-08T19:16:17.201Z,15.82
2023-04-08T19:19:18.695Z,15.81
2023-04-08T19:22:20.104Z,15.71
2023-04-08T19:25:21.557Z,15.64
2023-04-08T19:28:22.977Z,15.59
2023-04-08T19:31:24.512Z,15.55
2023-04-08T19:34:26.630Z,15.46
2023-04-08T19:37:28.112Z,15.36
2023-04-08T19:40:29.610Z,15.28
2023-04-08T19:43:31.332Z,15.26
2023-04-08T19:46:32.883Z,15.16
2023-04-08T19:49:34.382Z,15.06
2023-04-08T19:52:35.996Z,14.90
2023-04-08T19:55:37.781Z,14.79
2023-04-08T19:58:39.222Z,14.72
2023-04-08T20:01:41.111Z,14.57
2023-04-08T20:04:42.788Z,14.51
2023-04-08T20:07:44.348Z,14.41
2023-04-08T20:10:46.508Z,14.25
2023-04-08T20:13:49.173Z,14.12
2023-04-08T20:16:50.814Z,13.99
2023-04-08T20:19:52.321Z,13.91
2023-04-08T20:22:53.784Z,13.94
2023-04-08T20:25:56.615Z,13.94
2023-04-08T20:28:59.073Z,13.96
2023-04-08T20:32:00.826Z,13.94
2023-04-08T20:35:03.365Z,13.89
2023-04-08T20:38:05.603Z,13.88
2023-04-08T20:41:07.075Z,13.85
2023-04-08T20:44:10.502Z,13.82
2023-04-08T20:47:12.132Z,13.75
2023-04-08T20:50:13.628Z,13.60
2023-04-08T20:53:17.044Z,13.65
2023-04-08T20:56:18.586Z,13.70
2023-04-08T20:59:20.315Z,13.53
2023-04-08T21:02:21.863Z,13.52
2023-04-08T21:05:23.417Z,13.45
2023-04-08T21:08:24.889Z,13.52
2023-04-08T21:11:28.308Z,13.56
2023-04-08T21:14:31.927Z,13.58
2023-04-08T21:17:33.403Z,13.57
2023-04-08T21:20:34.849Z,13.49
2023-04-08T21:23:36.350Z,13.44
2023-04-08T21:26:37.830Z,13.39
2023-04-08T21:29:39.336Z,13.40
2023-04-08T21:32:41.240Z,13.39
2023-04-08T21:35:42.750Z,13.33
2023-04-08T21:38:44.528Z,13.21
2023-04-08T21:41:46.473Z,13.16
2023-04-08T21:44:48.703Z,13.08
2023-04-08T21:47:50.787Z,13.01
2023-04-08T21:50:53.144Z,13.02
2023-04-08T21:53:54.607Z,13.06
2023-04-08T21:56:56.877Z,13.07
2023-04-08T21:59:58.393Z,13.06
2023-04-08T22:03:01.083Z,13.01
2023-04-08T22:06:02.780Z,12.94
2023-04-08T22:09:04.323Z,12.92
2023-04-08T22:12:06.041Z,12.85
2023-04-08T22:15:08.279Z,12.75
2023-04-08T22:18:09.838Z,12.56
2023-04-08T22:21:11.317Z,12.66
2023-04-08T22:24:12.842Z,12.58
2023-04-08T22:27:14.300Z,12.40
2023-04-08T22:30:15.778Z,12.23
2023-04-08T22:33:17.366Z,12.25
2023-04-08T22:36:18.924Z,12.24
2023-04-08T22:39:20.475Z,12.27
2023-04-08T22:42:22.056Z,12.26
2023-04-08T22:45:23.674Z,12.32
2023-04-08T22:48:25.310Z,12.34
2023-04-08T22:51:26.825Z,12.40
2023-04-08T22:54:28.321Z,12.43
2023-04-08T22:57:29.866Z,12.42
2023-04-08T23:00:31.398Z,12.41
2023-04-08T23:03:32.878Z,12.42
2023-04-08T23:06:34.337Z,12.38
2023-04-08T23:09:35.973Z,12.23
2023-04-08T23:12:37.493Z,12.12
2023-04-08T23:15:38.983Z,12.03
2023-04-08T23:18:40.540Z,11.90
2023-04-08T23:21:42.150Z,11.81
2023-04-08T23:24:43.712Z,11.78
2023-04-08T23:27:45.877Z,11.68
2023-04-08T23:30:47.413Z,11.63
2023-04-08T23:33:49.134Z,11.55
2023-04-08T23:36:50.697Z,11.61
2023-04-08T23:39:52.437Z,11.64
2023-04-08T23:42:53.922Z,11.50
2023-04-08T23:45:55.599Z,11.45
2023-04-08T23:48:57.128Z,11.40
2023-04-08T23:51:58.648Z,11.34
2023-04-08T23:55:00.185Z,11.28
2023-04-08T23:58:01.659Z,11.22
